Frankfurt, Germany

11:05 PM CEST on September 01, 2014 (GMT +0200)
Frankfurt INTERNET AG www.inet.de | Change Station
CLOSE
Current Station
Personal Weather Station
Location: Frankfurt, HESSEN
Elevation: 348 ft
Nearby Weather Stations

Elev 348 ft 50.11 °N, 8.67 °E | Updated 0 second ago

Overcast
Overcast
63.3 °F
Feels Like 63.3 °F
N
5.4
Wind Variable Wind from NW
Gusts 5.4 mph

Today
High -- | Low -- °F
--% Chance of Precip.
Yesterday
High -- | Low -- °F
Precip. -- in
6:40 AM 8:10 PM
Waxing Crescent, 44% visible
Pressure 30.17 in
Visibility 6.2 miles
Clouds Mostly Cloudy 6500 ft
Overcast 8500 ft
Dew Point 54 °F
Humidity 71%
Rainfall 0.00 in
Snow Depth Not available.
UV 0 out of 12
Pollen Not available.
Air Quality Not available.
Flu Activity Not available.
METAR ETOU 012058Z AUTO 31004KT 9999 BKN065 OVC085 15/12 A3016 RMK AO2 SLP214 T01520122 51005

More Conditions Fewer Conditions

Pressure 30.17 in
Visibility 6.2 miles
Clouds Mostly Cloudy 6500 ft
Overcast 8500 ft
Dew Point 54 °F
Humidity 71%
Rainfall 0.00 in
Snow Depth Not available.
UV 0 out of 12
Pollen Not available.
Air Quality Not available.
Flu Activity Not available.
METAR ETOU 012058Z AUTO 31004KT 9999 BKN065 OVC085 15/12 A3016 RMK AO2 SLP214 T01520122 51005

More Conditions Fewer Conditions

10-Day Weather Forecast

Almanac

Astronomy

Sep. 01, 2014 Rise Set
Actual Time 6:40 AM CEST 8:10 PM CEST
Civil Twilight 6:06 AM CEST 8:43 PM CEST
Nautical Twilight 5:25 AM CEST 9:24 PM CEST
Astronomical Twilight 4:40 AM CEST 10:09 PM CEST
Moon 1:48 PM CEST 11:18 PM CEST
Length of Visible Light 14h 37m
Length of Day
13h 29m
Tomorrow will be 3m 38s shorter.
Waxing Crescent, 44% of the Moon is Illuminated
Today
Waxing Crescent
Sep 2
First Quarter
Sep 8
Full
Sep 15
Last Quarter
Sep 24
New

Today's Extremes

Country Highs Country Lows

Community

WunderPhotos

Upload Photos

1,749,407 photos uploaded!

WunderBlogs® & News

Nearby

Snow Depth

Not available.

Earthquake Activity

City Distance Mag. Time & Date
No recent earthquake activity has been reported nearby.
Minimum magnitude displayed is 2.5.

Coastal Water Temperatures

Place Temperature
No Stations Reporting

Nearby Weather Stations